createdAt,value
2022-08-19T00:01:37.765Z,11.63
2022-08-19T00:04:05.747Z,13.55
2022-08-19T00:06:32.085Z,13.65
2022-08-19T00:08:58.942Z,14.02
2022-08-19T00:11:26.328Z,15.68
2022-08-19T00:13:53.165Z,14.07
2022-08-19T00:16:25.248Z,13.18
2022-08-19T00:18:53.196Z,13.50
2022-08-19T00:21:19.559Z,14.00
2022-08-19T00:23:45.958Z,13.27
2022-08-19T00:26:12.299Z,14.45
2022-08-19T00:28:38.678Z,11.55
2022-08-19T00:31:05.603Z,12.50
2022-08-19T00:33:33.410Z,11.85
2022-08-19T00:36:00.295Z,12.73
2022-08-19T00:38:37.730Z,12.27
2022-08-19T00:41:05.969Z,11.52
2022-08-19T00:43:32.431Z,12.00
2022-08-19T00:45:59.965Z,11.73
2022-08-19T00:48:26.322Z,11.90
2022-08-19T00:50:53.980Z,13.15
2022-08-19T00:53:22.598Z,13.02
2022-08-19T00:55:51.401Z,14.18
2022-08-19T00:58:19.807Z,14.23
2022-08-19T01:00:47.319Z,15.10
2022-08-19T01:03:16.022Z,13.88
2022-08-19T01:05:46.729Z,14.63
2022-08-19T01:08:14.502Z,12.65
2022-08-19T01:11:01.088Z,13.90
2022-08-19T01:13:49.268Z,13.82
2022-08-19T01:16:17.457Z,15.02
2022-08-19T01:18:43.804Z,16.70
2022-08-19T01:21:16.219Z,16.50
2022-08-19T01:26:13.584Z,19.02
2022-08-19T01:28:42.456Z,18.38
2022-08-19T01:31:12.404Z,17.67
2022-08-19T01:33:55.607Z,17.95
2022-08-19T01:36:24.139Z,18.85
2022-08-19T01:38:50.640Z,17.85
2022-08-19T01:41:18.048Z,17.52
2022-08-19T01:44:17.744Z,18.75
2022-08-19T01:46:31.724Z,18.73
2022-08-19T01:48:58.079Z,16.83
2022-08-19T01:51:24.694Z,18.27
2022-08-19T01:53:51.965Z,16.67
2022-08-19T01:56:19.738Z,16.98
2022-08-19T01:58:51.567Z,15.68
2022-08-19T02:01:18.534Z,17.05
2022-08-19T02:03:44.916Z,15.95
2022-08-19T02:06:11.283Z,15.13
2022-08-19T02:08:38.418Z,15.73
2022-08-19T02:11:05.595Z,14.95
2022-08-19T02:13:32.361Z,17.88
2022-08-19T02:15:58.759Z,15.80
2022-08-19T02:18:27.766Z,15.27
2022-08-19T02:20:54.320Z,14.77
2022-08-19T02:23:20.680Z,15.15
2022-08-19T02:25:47.874Z,13.30
2022-08-19T02:28:18.014Z,13.93
2022-08-19T02:30:45.240Z,13.23
2022-08-19T02:33:11.588Z,13.38
2022-08-19T02:35:37.934Z,12.65
2022-08-19T02:38:22.630Z,12.85
2022-08-19T02:40:53.262Z,12.55
2022-08-19T02:43:21.142Z,12.68
2022-08-19T02:45:49.229Z,11.27
2022-08-19T02:48:21.570Z,10.52
2022-08-19T02:50:53.583Z,10.75
2022-08-19T02:53:20.160Z,10.52
2022-08-19T02:55:47.073Z,10.43
2022-08-19T02:58:14.200Z,12.63
2022-08-19T03:00:44.335Z,11.77
2022-08-19T03:03:11.079Z,10.55
2022-08-19T03:05:48.031Z,10.55
2022-08-19T03:08:23.512Z,9.15
2022-08-19T03:10:49.838Z,9.38
2022-08-19T03:13:17.459Z,9.93
2022-08-19T03:15:44.812Z,10.75
2022-08-19T03:18:11.561Z,10.70
2022-08-19T03:20:46.986Z,11.93
2022-08-19T03:23:14.020Z,11.70
2022-08-19T03:25:42.934Z,12.35
2022-08-19T03:28:09.596Z,11.85
2022-08-19T03:30:35.974Z,11.68
2022-08-19T03:33:02.775Z,11.35
2022-08-19T03:35:31.940Z,11.77
2022-08-19T03:37:59.791Z,13.30
2022-08-19T03:40:26.531Z,12.90
2022-08-19T03:42:52.860Z,11.75
2022-08-19T03:45:22.725Z,11.40
2022-08-19T03:47:49.448Z,11.77
2022-08-19T03:50:16.027Z,11.52
2022-08-19T03:52:45.553Z,11.05
2022-08-19T03:55:13.402Z,11.73
2022-08-19T03:57:39.748Z,11.20
2022-08-19T04:00:13.371Z,10.43
2022-08-19T04:02:40.747Z,11.18
2022-08-19T04:05:08.970Z,10.13
2022-08-19T04:07:35.363Z,11.10
2022-08-19T04:10:01.709Z,12.77
2022-08-19T04:12:28.723Z,16.02
2022-08-19T04:14:55.043Z,17.33
2022-08-19T04:17:21.367Z,16.33
2022-08-19T04:19:47.668Z,15.57
2022-08-19T04:22:14.043Z,13.77
2022-08-19T04:24:40.448Z,14.68
2022-08-19T04:27:06.978Z,14.25
2022-08-19T04:29:33.680Z,13.50
2022-08-19T04:32:00.212Z,13.60
2022-08-19T04:34:35.155Z,12.57
2022-08-19T04:37:01.557Z,13.20
2022-08-19T04:39:48.700Z,12.98
2022-08-19T04:42:34.570Z,12.65
2022-08-19T04:45:00.923Z,11.60
2022-08-19T04:47:48.164Z,11.05
2022-08-19T04:50:14.632Z,10.43
2022-08-19T04:52:43.671Z,10.02
2022-08-19T04:55:11.253Z,10.57
2022-08-19T04:57:40.959Z,10.60
2022-08-19T05:00:08.864Z,10.23
2022-08-19T05:02:35.270Z,11.35
2022-08-19T05:05:01.807Z,13.65
2022-08-19T05:07:28.322Z,13.52
2022-08-19T05:09:58.013Z,9.57
2022-08-19T05:12:29.031Z,7.30
2022-08-19T05:14:57.565Z,7.47
2022-08-19T05:17:27.722Z,6.00
2022-08-19T05:20:14.304Z,6.25
2022-08-19T05:22:40.990Z,7.28
2022-08-19T05:25:13.712Z,7.15
2022-08-19T05:27:40.679Z,6.68
2022-08-19T05:30:07.268Z,9.63
2022-08-19T05:32:33.637Z,8.98
2022-08-19T05:35:00.106Z,9.60
2022-08-19T05:37:28.468Z,8.98
2022-08-19T05:39:55.632Z,9.90
2022-08-19T05:42:23.683Z,11.00
2022-08-19T05:44:50.503Z,10.15
2022-08-19T05:47:17.221Z,14.73
2022-08-19T05:49:43.765Z,15.25
2022-08-19T05:52:12.258Z,12.63
2022-08-19T05:54:41.289Z,15.98
2022-08-19T05:57:07.918Z,12.95
2022-08-19T05:59:36.379Z,18.67
2022-08-19T06:02:06.076Z,20.98
2022-08-19T06:04:32.375Z,25.45
2022-08-19T06:06:59.222Z,21.02
2022-08-19T06:09:25.720Z,24.48
2022-08-19T06:11:56.021Z,29.50
2022-08-19T06:14:25.831Z,29.83
2022-08-19T06:16:54.442Z,32.75
2022-08-19T06:19:21.731Z,32.20
2022-08-19T06:21:49.336Z,33.88
2022-08-19T06:24:17.341Z,37.78
2022-08-19T06:29:12.062Z,34.50
2022-08-19T06:31:52.390Z,37.83
2022-08-19T06:34:19.096Z,33.88
2022-08-19T06:36:46.946Z,38.13
2022-08-19T06:39:14.883Z,36.67
2022-08-19T06:41:47.627Z,37.05
2022-08-19T06:44:19.318Z,35.50
2022-08-19T06:46:46.673Z,34.10
2022-08-19T06:49:21.693Z,33.40
2022-08-19T06:51:51.777Z,28.48
2022-08-19T06:54:19.458Z,28.13
2022-08-19T06:56:46.695Z,34.30
2022-08-19T06:59:17.467Z,35.90
2022-08-19T07:01:46.721Z,36.15
2022-08-19T07:04:14.950Z,37.60
2022-08-19T07:06:43.673Z,39.55
2022-08-19T07:09:12.279Z,41.28
2022-08-19T07:11:38.682Z,41.58
2022-08-19T07:14:07.395Z,42.47
2022-08-19T07:16:46.653Z,42.38
2022-08-19T07:19:15.952Z,42.33
2022-08-19T07:21:45.002Z,42.67
2022-08-19T07:24:11.864Z,42.30
2022-08-19T07:26:39.805Z,42.20
2022-08-19T07:29:08.878Z,30.05
2022-08-19T07:31:37.487Z,33.67
2022-08-19T07:34:07.781Z,43.65
2022-08-19T07:36:35.698Z,41.90
2022-08-19T07:39:05.087Z,42.35
2022-08-19T07:41:32.258Z,42.63
2022-08-19T07:43:59.563Z,41.38
2022-08-19T07:46:27.741Z,42.40
2022-08-19T07:48:54.062Z,41.72
2022-08-19T07:51:28.715Z,40.13
2022-08-19T07:54:03.663Z,39.58
2022-08-19T07:56:29.993Z,38.20
2022-08-19T08:01:28.665Z,39.37
2022-08-19T08:04:14.318Z,31.92
2022-08-19T08:06:59.055Z,35.05
2022-08-19T08:09:27.606Z,35.63
2022-08-19T08:12:32.846Z,35.33
2022-08-19T08:14:55.920Z,33.95
2022-08-19T08:17:48.616Z,34.40
2022-08-19T08:20:10.601Z,32.85
2022-08-19T08:22:55.642Z,32.38
2022-08-19T08:25:23.704Z,31.67
2022-08-19T08:27:50.724Z,32.05
2022-08-19T08:30:23.094Z,31.17
2022-08-19T08:32:50.227Z,31.83
2022-08-19T08:35:18.496Z,30.10
2022-08-19T08:37:45.573Z,29.85
2022-08-19T08:40:19.638Z,28.58
2022-08-19T08:42:52.147Z,28.40
2022-08-19T08:45:18.835Z,27.17
2022-08-19T08:47:50.467Z,28.90
2022-08-19T08:50:23.638Z,25.75
2022-08-19T08:52:54.505Z,25.85
2022-08-19T08:55:23.612Z,24.77
2022-08-19T08:57:49.948Z,24.80
2022-08-19T09:00:18.372Z,24.02
2022-08-19T09:02:45.326Z,22.08
2022-08-19T09:05:18.732Z,23.67
2022-08-19T09:08:07.696Z,24.13
2022-08-19T09:10:44.245Z,24.33
2022-08-19T09:13:14.307Z,21.30
2022-08-19T09:15:45.949Z,21.88
2022-08-19T09:18:15.114Z,21.95
2022-08-19T09:20:45.795Z,21.58
2022-08-19T09:23:14.857Z,22.38
2022-08-19T09:25:41.434Z,20.40
2022-08-19T09:28:15.171Z,19.92
2022-08-19T09:30:49.276Z,21.83
2022-08-19T09:33:17.268Z,21.60
2022-08-19T09:35:49.535Z,19.67
2022-08-19T09:38:19.278Z,18.83
2022-08-19T09:40:45.680Z,19.05
2022-08-19T09:43:13.397Z,17.02
2022-08-19T09:45:40.067Z,15.93
2022-08-19T09:48:07.021Z,16.48
2022-08-19T09:50:35.079Z,16.70
2022-08-19T09:53:01.462Z,17.17
2022-08-19T09:55:31.971Z,17.10
2022-08-19T09:58:02.815Z,15.88
2022-08-19T10:00:29.716Z,14.88
2022-08-19T10:02:56.068Z,15.90
2022-08-19T10:05:42.338Z,15.60
2022-08-19T10:08:13.817Z,15.75
2022-08-19T10:10:43.216Z,14.90
2022-08-19T10:13:09.605Z,13.48
2022-08-19T10:15:47.715Z,13.43
2022-08-19T10:18:14.235Z,14.88
2022-08-19T10:20:42.576Z,13.90
2022-08-19T10:23:09.756Z,12.90
2022-08-19T10:25:36.190Z,12.40
2022-08-19T10:28:05.203Z,11.43
2022-08-19T10:30:37.399Z,13.85
2022-08-19T10:33:08.537Z,13.32
2022-08-19T10:35:56.233Z,13.57
2022-08-19T10:38:31.471Z,14.43
2022-08-19T10:40:58.839Z,14.30
2022-08-19T10:43:25.835Z,13.55
2022-08-19T10:46:00.076Z,14.23
2022-08-19T10:48:26.659Z,12.82
2022-08-19T10:51:12.599Z,13.15
2022-08-19T10:53:49.402Z,14.98
2022-08-19T10:56:34.091Z,15.60
2022-08-19T10:59:01.070Z,15.25
2022-08-19T11:01:27.950Z,14.38
2022-08-19T11:03:54.290Z,14.68
2022-08-19T11:06:21.457Z,14.88
2022-08-19T11:08:47.812Z,14.00
2022-08-19T11:11:14.172Z,14.10
2022-08-19T11:13:41.357Z,14.55
2022-08-19T11:16:09.451Z,13.32
2022-08-19T11:18:39.422Z,15.23
2022-08-19T11:21:35.358Z,16.67
2022-08-19T11:24:03.337Z,16.63
2022-08-19T11:26:30.364Z,15.70
2022-08-19T11:28:57.857Z,15.75
2022-08-19T11:31:28.817Z,16.20
2022-08-19T11:33:57.070Z,13.60
2022-08-19T11:36:23.398Z,16.15
2022-08-19T11:38:50.267Z,16.08
2022-08-19T11:41:17.766Z,18.67
2022-08-19T11:43:44.125Z,16.02
2022-08-19T11:46:11.452Z,14.63
2022-08-19T11:48:38.487Z,13.93
2022-08-19T11:51:09.616Z,15.40
2022-08-19T11:53:36.873Z,15.63
2022-08-19T11:56:03.897Z,14.02
2022-08-19T11:58:30.209Z,16.25
2022-08-19T12:00:56.518Z,17.10
2022-08-19T12:03:22.871Z,18.95
2022-08-19T12:05:50.687Z,15.90
2022-08-19T12:08:17.385Z,17.10
2022-08-19T12:10:43.837Z,17.30
2022-08-19T12:13:10.856Z,18.08
2022-08-19T12:15:38.425Z,17.00
2022-08-19T12:18:05.583Z,17.15
2022-08-19T12:20:36.391Z,16.45
2022-08-19T12:23:03.575Z,17.37
2022-08-19T12:25:29.915Z,17.30
2022-08-19T12:27:57.603Z,16.88
2022-08-19T12:30:24.468Z,16.20
2022-08-19T12:32:52.069Z,19.58
2022-08-19T12:35:20.835Z,22.13
2022-08-19T12:37:56.594Z,21.15
2022-08-19T12:40:27.163Z,15.23
2022-08-19T12:42:54.362Z,15.77
2022-08-19T12:45:20.777Z,15.98
2022-08-19T12:47:47.734Z,11.68
2022-08-19T12:50:14.231Z,12.00
2022-08-19T12:52:43.071Z,12.48
2022-08-19T12:55:09.628Z,13.10
2022-08-19T12:57:37.764Z,13.65
2022-08-19T13:00:09.834Z,14.05
2022-08-19T13:05:07.035Z,11.10
2022-08-19T13:07:33.432Z,9.45
2022-08-19T13:09:59.857Z,10.00
2022-08-19T13:12:27.557Z,10.27
2022-08-19T13:14:54.245Z,9.93
2022-08-19T13:17:21.346Z,9.40
2022-08-19T13:19:47.686Z,11.50
2022-08-19T13:22:15.179Z,10.63
2022-08-19T13:24:46.833Z,10.70
2022-08-19T13:27:13.550Z,12.73
2022-08-19T13:29:59.250Z,11.95
2022-08-19T13:32:44.270Z,12.93
2022-08-19T13:35:14.889Z,13.73
2022-08-19T13:37:43.214Z,15.02
2022-08-19T13:40:13.903Z,15.10
2022-08-19T13:42:40.774Z,14.95
2022-08-19T13:45:07.893Z,15.55
2022-08-19T13:47:43.522Z,15.75
2022-08-19T13:50:11.733Z,15.93
2022-08-19T13:52:39.218Z,15.55
2022-08-19T13:55:06.267Z,16.63
2022-08-19T13:57:32.594Z,13.88
2022-08-19T13:59:59.271Z,16.08
2022-08-19T14:02:25.950Z,14.00
2022-08-19T14:04:52.326Z,12.65
2022-08-19T14:07:18.626Z,11.95
2022-08-19T14:09:45.076Z,11.95
2022-08-19T14:12:13.868Z,11.90
2022-08-19T14:14:41.190Z,11.23
2022-08-19T14:17:08.201Z,11.57
2022-08-19T14:19:34.519Z,10.77
2022-08-19T14:22:00.880Z,11.02
2022-08-19T14:24:27.959Z,11.23
2022-08-19T14:26:54.265Z,11.05
2022-08-19T14:29:20.609Z,8.77
2022-08-19T14:31:47.124Z,9.65
2022-08-19T14:34:13.656Z,9.85
2022-08-19T14:36:40.035Z,9.60
2022-08-19T14:39:06.400Z,8.25
2022-08-19T14:41:34.422Z,9.10
2022-08-19T14:44:02.186Z,7.68
2022-08-19T14:46:29.493Z,8.68
2022-08-19T14:48:56.463Z,7.50
2022-08-19T14:51:23.909Z,6.57
2022-08-19T14:53:50.957Z,8.43
2022-08-19T14:56:18.708Z,7.20
2022-08-19T14:58:45.276Z,6.88
2022-08-19T15:01:12.451Z,6.60
2022-08-19T15:03:40.263Z,6.97
2022-08-19T15:06:06.952Z,6.70
2022-08-19T15:08:36.411Z,6.70
2022-08-19T15:11:02.963Z,6.82
2022-08-19T15:13:30.987Z,6.05
2022-08-19T15:15:58.100Z,5.88
2022-08-19T15:18:24.770Z,5.72
2022-08-19T15:20:51.805Z,5.88
2022-08-19T15:23:18.797Z,6.30
2022-08-19T15:25:45.266Z,4.82
2022-08-19T15:28:12.183Z,5.10
2022-08-19T15:30:39.380Z,5.28
2022-08-19T15:33:05.818Z,5.63
2022-08-19T15:35:32.310Z,5.13
2022-08-19T15:37:58.690Z,4.70
2022-08-19T15:40:25.741Z,4.97
2022-08-19T15:42:52.241Z,4.32
2022-08-19T15:45:19.462Z,4.18
2022-08-19T15:47:45.814Z,4.78
2022-08-19T15:50:16.491Z,4.10
2022-08-19T15:52:49.963Z,4.93
2022-08-19T15:55:32.334Z,4.57
2022-08-19T15:58:29.010Z,4.30
2022-08-19T16:01:15.497Z,4.30
2022-08-19T16:04:01.231Z,4.65
2022-08-19T16:06:28.772Z,3.83
2022-08-19T16:08:56.730Z,4.82
2022-08-19T16:11:29.257Z,3.92
2022-08-19T16:13:57.768Z,3.97
2022-08-19T16:16:31.075Z,3.50
2022-08-19T16:19:02.355Z,3.30
2022-08-19T16:21:33.356Z,3.90
2022-08-19T16:24:00.987Z,3.40
2022-08-19T16:26:31.121Z,4.00
2022-08-19T16:28:58.796Z,3.80
2022-08-19T16:31:25.901Z,4.10
2022-08-19T16:33:52.701Z,4.35
2022-08-19T16:36:19.021Z,4.43
2022-08-19T16:38:49.357Z,4.45
2022-08-19T16:41:15.999Z,4.30
2022-08-19T16:43:42.355Z,3.22
2022-08-19T16:46:09.542Z,4.05
2022-08-19T16:48:38.978Z,3.95
2022-08-19T16:51:08.504Z,3.40
2022-08-19T16:53:35.858Z,3.65
2022-08-19T16:56:02.262Z,3.25
2022-08-19T16:58:29.417Z,3.35
2022-08-19T17:00:59.602Z,4.25
2022-08-19T17:03:36.408Z,4.25
2022-08-19T17:06:03.859Z,3.75
2022-08-19T17:08:31.423Z,3.90
2022-08-19T17:11:17.330Z,4.20
2022-08-19T17:13:44.626Z,3.95
2022-08-19T17:16:14.169Z,3.97
2022-08-19T17:18:40.536Z,4.20
2022-08-19T17:21:06.880Z,4.15
2022-08-19T17:23:42.203Z,4.30
2022-08-19T17:26:09.758Z,4.82
2022-08-19T17:28:43.988Z,4.82
2022-08-19T17:31:11.309Z,4.38
2022-08-19T17:33:41.150Z,4.88
2022-08-19T17:36:08.904Z,5.22
2022-08-19T17:38:35.768Z,5.03
2022-08-19T17:41:05.107Z,4.38
2022-08-19T17:43:38.946Z,5.35
2022-08-19T17:46:11.067Z,5.30
2022-08-19T17:48:40.406Z,4.97
2022-08-19T17:51:22.348Z,4.95
2022-08-19T17:53:50.517Z,4.53
2022-08-19T17:56:19.837Z,4.75
2022-08-19T17:58:57.904Z,4.25
2022-08-19T18:01:32.014Z,5.03
2022-08-19T18:04:17.119Z,4.93
2022-08-19T18:06:46.035Z,4.65
2022-08-19T18:09:20.949Z,4.82
2022-08-19T18:11:52.708Z,5.20
2022-08-19T18:14:19.901Z,5.30
2022-08-19T18:16:46.480Z,5.90
2022-08-19T18:19:12.808Z,5.65
2022-08-19T18:21:40.685Z,5.95
2022-08-19T18:24:07.063Z,5.20
2022-08-19T18:26:33.695Z,5.10
2022-08-19T18:29:00.119Z,4.60
2022-08-19T18:31:26.509Z,3.63
2022-08-19T18:33:53.033Z,3.72
2022-08-19T18:36:37.448Z,3.95
2022-08-19T18:39:25.084Z,2.92
2022-08-19T18:42:14.290Z,3.08
2022-08-19T18:45:00.065Z,2.33
2022-08-19T18:47:45.430Z,1.98
2022-08-19T18:50:12.943Z,2.03
2022-08-19T18:52:40.186Z,2.25
2022-08-19T18:55:07.402Z,2.05
2022-08-19T18:57:33.792Z,2.28
2022-08-19T19:00:00.204Z,2.78
2022-08-19T19:02:27.614Z,2.95
2022-08-19T19:04:55.919Z,2.95
2022-08-19T19:07:23.357Z,2.28
2022-08-19T19:09:52.472Z,2.50
2022-08-19T19:12:18.780Z,2.45
2022-08-19T19:14:49.570Z,2.70
2022-08-19T19:17:16.492Z,2.92
2022-08-19T19:19:43.922Z,3.15
2022-08-19T19:22:18.009Z,3.30
2022-08-19T19:24:44.371Z,3.28
2022-08-19T19:27:12.781Z,3.50
2022-08-19T19:29:39.647Z,3.58
2022-08-19T19:32:07.937Z,3.60
2022-08-19T19:34:34.608Z,3.80
2022-08-19T19:37:01.008Z,3.40
2022-08-19T19:39:34.062Z,3.53
2022-08-19T19:42:19.655Z,3.05
2022-08-19T19:44:48.670Z,3.50
2022-08-19T19:47:18.849Z,3.08
2022-08-19T19:50:10.585Z,3.22
2022-08-19T19:52:32.410Z,4.18
2022-08-19T19:54:58.784Z,3.33
2022-08-19T19:57:26.559Z,3.75
2022-08-19T19:59:58.361Z,3.92
2022-08-19T20:02:25.133Z,3.90
2022-08-19T20:04:51.483Z,4.05
2022-08-19T20:07:17.878Z,3.50
2022-08-19T20:09:59.339Z,3.88
2022-08-19T20:12:26.757Z,3.40
2022-08-19T20:14:53.087Z,3.30
2022-08-19T20:17:20.845Z,2.85
2022-08-19T20:19:47.917Z,3.70
2022-08-19T20:22:14.583Z,3.70
2022-08-19T20:24:42.408Z,3.92
2022-08-19T20:27:09.132Z,3.88
2022-08-19T20:29:39.380Z,4.40
2022-08-19T20:32:08.896Z,4.20
2022-08-19T20:34:35.231Z,3.97
2022-08-19T20:37:03.306Z,4.00
2022-08-19T20:39:29.624Z,4.82
2022-08-19T20:41:56.430Z,4.47
2022-08-19T20:44:24.664Z,4.68
2022-08-19T20:46:54.627Z,4.70
2022-08-19T20:49:22.055Z,5.50
2022-08-19T20:51:48.839Z,5.05
2022-08-19T20:54:15.167Z,6.28
2022-08-19T20:56:41.517Z,5.85
2022-08-19T20:59:10.403Z,5.88
2022-08-19T21:01:37.198Z,6.10
2022-08-19T21:04:03.789Z,6.45
2022-08-19T21:06:30.994Z,6.32
2022-08-19T21:08:58.545Z,7.05
2022-08-19T21:11:24.887Z,6.82
2022-08-19T21:13:51.270Z,7.60
2022-08-19T21:16:17.650Z,7.43
2022-08-19T21:18:44.010Z,7.97
2022-08-19T21:21:10.377Z,8.05
2022-08-19T21:23:36.859Z,7.75
2022-08-19T21:26:03.287Z,8.43
2022-08-19T21:28:36.026Z,8.65
2022-08-19T21:31:03.927Z,8.07
2022-08-19T21:33:31.798Z,8.82
2022-08-19T21:35:59.186Z,8.65
2022-08-19T21:38:25.526Z,8.82
2022-08-19T21:40:51.852Z,9.25
2022-08-19T21:43:18.239Z,10.10
2022-08-19T21:45:45.506Z,9.50
2022-08-19T21:48:12.497Z,10.18
2022-08-19T21:50:38.804Z,9.73
2022-08-19T21:53:05.236Z,9.77
2022-08-19T21:55:31.596Z,9.65
2022-08-19T21:57:59.957Z,9.93
2022-08-19T22:00:28.146Z,10.30
2022-08-19T22:05:25.420Z,10.52
2022-08-19T22:07:52.758Z,11.23
2022-08-19T22:10:20.046Z,11.15
2022-08-19T22:12:51.400Z,10.32
2022-08-19T22:15:18.880Z,10.63
2022-08-19T22:17:45.187Z,10.82
2022-08-19T22:20:13.394Z,11.20
2022-08-19T22:22:45.508Z,10.25
2022-08-19T22:25:13.382Z,11.75
2022-08-19T22:28:00.482Z,11.50
2022-08-19T22:30:27.370Z,11.25
2022-08-19T22:33:01.570Z,11.55
2022-08-19T22:35:31.283Z,11.48
2022-08-19T22:37:58.891Z,12.07
2022-08-19T22:40:26.827Z,11.73
2022-08-19T22:43:04.228Z,12.13
2022-08-19T22:45:31.110Z,11.30
2022-08-19T22:47:57.709Z,12.05
2022-08-19T22:50:24.093Z,12.23
2022-08-19T22:52:54.875Z,11.77
2022-08-19T22:55:21.193Z,11.75
2022-08-19T22:57:47.786Z,12.65
2022-08-19T23:00:14.712Z,11.07
2022-08-19T23:02:51.322Z,12.20
2022-08-19T23:05:18.834Z,10.90
2022-08-19T23:07:52.063Z,11.13
2022-08-19T23:10:26.942Z,11.85
2022-08-19T23:12:54.840Z,11.57
2022-08-19T23:15:24.090Z,12.25
2022-08-19T23:17:50.797Z,12.15
2022-08-19T23:20:17.145Z,11.82
2022-08-19T23:22:44.379Z,11.90
2022-08-19T23:25:12.083Z,12.05
2022-08-19T23:27:57.027Z,12.60
2022-08-19T23:30:26.454Z,12.88
2022-08-19T23:32:57.484Z,12.75
2022-08-19T23:35:24.210Z,12.88
2022-08-19T23:37:51.991Z,13.32
2022-08-19T23:40:21.846Z,13.60
2022-08-19T23:42:48.940Z,13.02
2022-08-19T23:45:16.125Z,12.23
2022-08-19T23:47:50.119Z,13.98
2022-08-19T23:50:16.810Z,13.18
2022-08-19T23:52:44.822Z,12.55
2022-08-19T23:55:11.704Z,11.93
2022-08-19T23:57:38.079Z,12.10
